sensor_id;sensor_type;location;lat;lon;timestamp;temperature;humidity
66708;DHT22;53622;0.000;0.000;2023-05-31T00:00:07;24.70;63.40
66708;DHT22;53622;0.000;0.000;2023-05-31T00:02:37;24.70;63.40
66708;DHT22;53622;0.000;0.000;2023-05-31T00:05:07;24.70;63.30
66708;DHT22;53622;0.000;0.000;2023-05-31T00:07:37;24.70;63.30
66708;DHT22;53622;0.000;0.000;2023-05-31T00:10:07;24.70;63.30
66708;DHT22;53622;0.000;0.000;2023-05-31T00:12:37;24.70;63.20
66708;DHT22;53622;0.000;0.000;2023-05-31T00:15:07;24.70;63.20
66708;DHT22;53622;0.000;0.000;2023-05-31T00:17:37;24.70;63.20
66708;DHT22;53622;0.000;0.000;2023-05-31T00:20:09;24.70;63.10
66708;DHT22;53622;0.000;0.000;2023-05-31T00:22:39;24.70;63.20
66708;DHT22;53622;0.000;0.000;2023-05-31T00:25:08;24.70;63.20
66708;DHT22;53622;0.000;0.000;2023-05-31T00:27:39;24.70;63.20
66708;DHT22;53622;0.000;0.000;2023-05-31T00:30:09;24.70;63.10
66708;DHT22;53622;0.000;0.000;2023-05-31T00:32:39;24.70;63.70
66708;DHT22;53622;0.000;0.000;2023-05-31T00:35:10;24.70;63.10
66708;DHT22;53622;0.000;0.000;2023-05-31T00:37:39;24.70;63.10
66708;DHT22;53622;0.000;0.000;2023-05-31T00:40:09;24.70;63.10
66708;DHT22;53622;0.000;0.000;2023-05-31T00:42:39;24.70;63.00
66708;DHT22;53622;0.000;0.000;2023-05-31T00:45:09;24.70;63.00
66708;DHT22;53622;0.000;0.000;2023-05-31T00:47:38;24.70;63.00
66708;DHT22;53622;0.000;0.000;2023-05-31T00:50:08;24.70;63.00
66708;DHT22;53622;0.000;0.000;2023-05-31T00:52:37;24.70;63.00
66708;DHT22;53622;0.000;0.000;2023-05-31T00:55:08;24.70;63.00
66708;DHT22;53622;0.000;0.000;2023-05-31T00:57:40;24.70;62.90
66708;DHT22;53622;0.000;0.000;2023-05-31T01:00:10;24.70;63.00
66708;DHT22;53622;0.000;0.000;2023-05-31T01:02:40;24.70;63.00
66708;DHT22;53622;0.000;0.000;2023-05-31T01:05:11;24.70;63.00
66708;DHT22;53622;0.000;0.000;2023-05-31T01:07:41;24.70;63.00
66708;DHT22;53622;0.000;0.000;2023-05-31T01:10:12;24.70;62.90
66708;DHT22;53622;0.000;0.000;2023-05-31T01:12:55;24.70;62.90
66708;DHT22;53622;0.000;0.000;2023-05-31T01:15:27;24.70;62.90
66708;DHT22;53622;0.000;0.000;2023-05-31T01:18:03;24.70;62.90
66708;DHT22;53622;0.000;0.000;2023-05-31T01:20:39;24.70;62.90
66708;DHT22;53622;0.000;0.000;2023-05-31T01:23:27;24.60;62.80
66708;DHT22;53622;0.000;0.000;2023-05-31T01:26:34;24.70;62.80
66708;DHT22;53622;0.000;0.000;2023-05-31T01:29:08;24.70;62.80
66708;DHT22;53622;0.000;0.000;2023-05-31T01:31:40;24.60;62.80
66708;DHT22;53622;0.000;0.000;2023-05-31T01:34:11;24.60;62.80
66708;DHT22;53622;0.000;0.000;2023-05-31T01:36:40;24.60;62.70
66708;DHT22;53622;0.000;0.000;2023-05-31T01:39:11;24.60;62.70
66708;DHT22;53622;0.000;0.000;2023-05-31T01:41:43;24.60;62.70
66708;DHT22;53622;0.000;0.000;2023-05-31T01:44:15;24.60;62.60
66708;DHT22;53622;0.000;0.000;2023-05-31T01:46:46;24.60;62.60
66708;DHT22;53622;0.000;0.000;2023-05-31T01:49:17;24.60;62.60
66708;DHT22;53622;0.000;0.000;2023-05-31T01:51:46;24.60;62.60
66708;DHT22;53622;0.000;0.000;2023-05-31T01:54:17;24.60;62.70
66708;DHT22;53622;0.000;0.000;2023-05-31T01:56:47;24.60;62.60
66708;DHT22;53622;0.000;0.000;2023-05-31T01:59:17;24.60;62.60
66708;DHT22;53622;0.000;0.000;2023-05-31T02:01:47;24.60;62.60
66708;DHT22;53622;0.000;0.000;2023-05-31T02:04:18;24.60;62.60
66708;DHT22;53622;0.000;0.000;2023-05-31T02:06:47;24.60;62.60
66708;DHT22;53622;0.000;0.000;2023-05-31T02:09:20;24.60;62.50
66708;DHT22;53622;0.000;0.000;2023-05-31T02:11:51;24.60;62.50
66708;DHT22;53622;0.000;0.000;2023-05-31T02:14:20;24.60;62.50
66708;DHT22;53622;0.000;0.000;2023-05-31T02:16:49;24.60;62.50
66708;DHT22;53622;0.000;0.000;2023-05-31T02:19:19;24.60;62.50
66708;DHT22;53622;0.000;0.000;2023-05-31T02:21:53;24.60;62.40
66708;DHT22;53622;0.000;0.000;2023-05-31T02:24:22;24.60;62.50
66708;DHT22;53622;0.000;0.000;2023-05-31T02:26:57;24.60;62.50
66708;DHT22;53622;0.000;0.000;2023-05-31T02:29:26;24.60;62.50
66708;DHT22;53622;0.000;0.000;2023-05-31T02:31:56;24.60;62.40
66708;DHT22;53622;0.000;0.000;2023-05-31T02:34:25;24.60;62.40
66708;DHT22;53622;0.000;0.000;2023-05-31T02:36:55;24.50;62.30
66708;DHT22;53622;0.000;0.000;2023-05-31T02:39:24;24.50;62.40
66708;DHT22;53622;0.000;0.000;2023-05-31T02:41:54;24.50;62.30
66708;DHT22;53622;0.000;0.000;2023-05-31T02:44:25;24.50;62.30
66708;DHT22;53622;0.000;0.000;2023-05-31T02:46:55;24.50;62.30
66708;DHT22;53622;0.000;0.000;2023-05-31T02:49:24;24.50;62.30
66708;DHT22;53622;0.000;0.000;2023-05-31T02:51:54;24.50;62.30
66708;DHT22;53622;0.000;0.000;2023-05-31T02:54:43;24.50;62.30
66708;DHT22;53622;0.000;0.000;2023-05-31T02:57:16;24.50;62.30
66708;DHT22;53622;0.000;0.000;2023-05-31T02:59:48;24.50;62.30
66708;DHT22;53622;0.000;0.000;2023-05-31T03:02:19;24.50;62.20
66708;DHT22;53622;0.000;0.000;2023-05-31T03:04:55;24.50;62.20
66708;DHT22;53622;0.000;0.000;2023-05-31T03:07:25;24.50;62.20
66708;DHT22;53622;0.000;0.000;2023-05-31T03:09:54;24.50;62.10
66708;DHT22;53622;0.000;0.000;2023-05-31T03:12:23;24.50;62.10
66708;DHT22;53622;0.000;0.000;2023-05-31T03:14:54;24.50;62.10
66708;DHT22;53622;0.000;0.000;2023-05-31T03:17:23;24.50;62.90
66708;DHT22;53622;0.000;0.000;2023-05-31T03:19:53;24.50;62.10
66708;DHT22;53622;0.000;0.000;2023-05-31T03:22:22;24.50;62.00
66708;DHT22;53622;0.000;0.000;2023-05-31T03:24:52;24.50;62.00
66708;DHT22;53622;0.000;0.000;2023-05-31T03:27:22;24.50;62.00
66708;DHT22;53622;0.000;0.000;2023-05-31T03:29:51;24.50;62.00
66708;DHT22;53622;0.000;0.000;2023-05-31T03:32:22;24.50;62.00
66708;DHT22;53622;0.000;0.000;2023-05-31T03:34:52;24.50;62.00
66708;DHT22;53622;0.000;0.000;2023-05-31T03:37:21;24.40;62.00
66708;DHT22;53622;0.000;0.000;2023-05-31T03:39:57;24.50;62.10
66708;DHT22;53622;0.000;0.000;2023-05-31T03:42:30;24.40;62.10
66708;DHT22;53622;0.000;0.000;2023-05-31T03:45:00;24.40;62.20
66708;DHT22;53622;0.000;0.000;2023-05-31T03:47:31;24.50;62.20
66708;DHT22;53622;0.000;0.000;2023-05-31T03:50:00;24.50;62.20
66708;DHT22;53622;0.000;0.000;2023-05-31T03:52:29;24.50;62.10
66708;DHT22;53622;0.000;0.000;2023-05-31T03:54:59;24.50;62.10
66708;DHT22;53622;0.000;0.000;2023-05-31T03:57:28;24.50;62.10
66708;DHT22;53622;0.000;0.000;2023-05-31T03:59:58;24.50;62.10
66708;DHT22;53622;0.000;0.000;2023-05-31T04:02:29;24.50;62.10
66708;DHT22;53622;0.000;0.000;2023-05-31T04:05:00;24.50;62.10
66708;DHT22;53622;0.000;0.000;2023-05-31T04:07:29;24.50;62.20
66708;DHT22;53622;0.000;0.000;2023-05-31T04:09:59;24.50;62.30
66708;DHT22;53622;0.000;0.000;2023-05-31T04:12:28;24.50;62.20
66708;DHT22;53622;0.000;0.000;2023-05-31T04:14:59;24.50;62.30
66708;DHT22;53622;0.000;0.000;2023-05-31T04:17:30;24.50;62.30
66708;DHT22;53622;0.000;0.000;2023-05-31T04:20:01;24.50;62.30
66708;DHT22;53622;0.000;0.000;2023-05-31T04:22:32;24.50;63.20
66708;DHT22;53622;0.000;0.000;2023-05-31T04:25:01;24.50;62.50
66708;DHT22;53622;0.000;0.000;2023-05-31T04:27:36;24.50;62.50
66708;DHT22;53622;0.000;0.000;2023-05-31T04:30:07;24.50;62.40
66708;DHT22;53622;0.000;0.000;2023-05-31T04:32:37;24.50;62.60
66708;DHT22;53622;0.000;0.000;2023-05-31T04:35:09;24.50;62.50
66708;DHT22;53622;0.000;0.000;2023-05-31T04:37:42;24.50;62.60
66708;DHT22;53622;0.000;0.000;2023-05-31T04:40:12;24.50;62.60
66708;DHT22;53622;0.000;0.000;2023-05-31T04:42:42;24.50;62.60
66708;DHT22;53622;0.000;0.000;2023-05-31T04:45:22;24.50;62.60
66708;DHT22;53622;0.000;0.000;2023-05-31T04:47:53;24.50;62.60
66708;DHT22;53622;0.000;0.000;2023-05-31T04:50:24;24.40;62.50
66708;DHT22;53622;0.000;0.000;2023-05-31T04:52:57;24.40;62.60
66708;DHT22;53622;0.000;0.000;2023-05-31T04:55:27;24.40;62.90
66708;DHT22;53622;0.000;0.000;2023-05-31T04:58:02;24.40;62.90
66708;DHT22;53622;0.000;0.000;2023-05-31T05:00:32;24.40;63.20
66708;DHT22;53622;0.000;0.000;2023-05-31T05:03:14;24.50;63.10
66708;DHT22;53622;0.000;0.000;2023-05-31T05:05:50;24.50;63.00
66708;DHT22;53622;0.000;0.000;2023-05-31T05:08:20;24.50;63.30
66708;DHT22;53622;0.000;0.000;2023-05-31T05:10:51;24.50;63.40
66708;DHT22;53622;0.000;0.000;2023-05-31T05:13:21;24.50;63.40
66708;DHT22;53622;0.000;0.000;2023-05-31T05:15:51;24.50;63.60
66708;DHT22;53622;0.000;0.000;2023-05-31T05:18:21;24.50;63.40
66708;DHT22;53622;0.000;0.000;2023-05-31T05:20:52;24.50;63.30
66708;DHT22;53622;0.000;0.000;2023-05-31T05:23:26;24.60;63.30
66708;DHT22;53622;0.000;0.000;2023-05-31T05:25:56;24.50;63.30
66708;DHT22;53622;0.000;0.000;2023-05-31T05:28:27;24.50;63.40
66708;DHT22;53622;0.000;0.000;2023-05-31T05:30:57;24.50;63.80
66708;DHT22;53622;0.000;0.000;2023-05-31T05:33:30;24.60;63.40
66708;DHT22;53622;0.000;0.000;2023-05-31T05:36:04;24.60;63.30
66708;DHT22;53622;0.000;0.000;2023-05-31T05:38:38;24.60;63.30
66708;DHT22;53622;0.000;0.000;2023-05-31T05:41:07;24.60;63.30
66708;DHT22;53622;0.000;0.000;2023-05-31T05:43:42;24.60;63.30
66708;DHT22;53622;0.000;0.000;2023-05-31T05:46:14;24.60;63.60
66708;DHT22;53622;0.000;0.000;2023-05-31T05:48:43;24.60;63.50
66708;DHT22;53622;0.000;0.000;2023-05-31T05:51:16;24.60;63.40
66708;DHT22;53622;0.000;0.000;2023-05-31T05:53:46;24.60;63.80
66708;DHT22;53622;0.000;0.000;2023-05-31T05:56:15;24.50;62.90
66708;DHT22;53622;0.000;0.000;2023-05-31T05:59:06;24.50;63.00
66708;DHT22;53622;0.000;0.000;2023-05-31T06:02:00;24.50;63.30
66708;DHT22;53622;0.000;0.000;2023-05-31T06:04:30;24.50;63.40
66708;DHT22;53622;0.000;0.000;2023-05-31T06:07:01;24.50;63.60
66708;DHT22;53622;0.000;0.000;2023-05-31T06:09:30;24.50;63.70
66708;DHT22;53622;0.000;0.000;2023-05-31T06:12:00;24.60;63.80
66708;DHT22;53622;0.000;0.000;2023-05-31T06:14:33;24.60;64.60
66708;DHT22;53622;0.000;0.000;2023-05-31T06:17:02;24.60;63.90
66708;DHT22;53622;0.000;0.000;2023-05-31T06:19:32;24.60;63.90
66708;DHT22;53622;0.000;0.000;2023-05-31T06:22:02;24.60;64.10
66708;DHT22;53622;0.000;0.000;2023-05-31T06:24:32;24.60;64.00
66708;DHT22;53622;0.000;0.000;2023-05-31T06:27:01;24.60;63.90
66708;DHT22;53622;0.000;0.000;2023-05-31T06:29:35;24.50;64.00
66708;DHT22;53622;0.000;0.000;2023-05-31T06:32:23;24.50;64.00
66708;DHT22;53622;0.000;0.000;2023-05-31T06:34:53;24.50;64.00
66708;DHT22;53622;0.000;0.000;2023-05-31T06:37:23;24.60;64.00
66708;DHT22;53622;0.000;0.000;2023-05-31T06:39:53;24.50;63.90
66708;DHT22;53622;0.000;0.000;2023-05-31T06:42:23;24.50;63.90
66708;DHT22;53622;0.000;0.000;2023-05-31T06:44:57;24.50;64.00
66708;DHT22;53622;0.000;0.000;2023-05-31T06:47:39;24.50;64.00
66708;DHT22;53622;0.000;0.000;2023-05-31T06:50:26;24.50;64.20
66708;DHT22;53622;0.000;0.000;2023-05-31T06:53:12;24.50;64.30
66708;DHT22;53622;0.000;0.000;2023-05-31T06:55:45;24.50;64.40
66708;DHT22;53622;0.000;0.000;2023-05-31T06:58:18;24.40;64.40
66708;DHT22;53622;0.000;0.000;2023-05-31T07:00:51;24.40;64.50
66708;DHT22;53622;0.000;0.000;2023-05-31T07:03:20;24.40;64.40
66708;DHT22;53622;0.000;0.000;2023-05-31T07:05:50;24.40;64.40
66708;DHT22;53622;0.000;0.000;2023-05-31T07:08:22;24.40;64.40
66708;DHT22;53622;0.000;0.000;2023-05-31T07:11:10;24.50;64.50
66708;DHT22;53622;0.000;0.000;2023-05-31T07:13:40;24.40;64.50
66708;DHT22;53622;0.000;0.000;2023-05-31T07:16:10;24.40;64.40
66708;DHT22;53622;0.000;0.000;2023-05-31T07:18:39;24.40;64.50
66708;DHT22;53622;0.000;0.000;2023-05-31T07:21:08;24.40;64.40
66708;DHT22;53622;0.000;0.000;2023-05-31T07:23:39;24.40;64.40
66708;DHT22;53622;0.000;0.000;2023-05-31T07:26:09;24.50;64.40
66708;DHT22;53622;0.000;0.000;2023-05-31T07:28:38;24.50;64.40
66708;DHT22;53622;0.000;0.000;2023-05-31T07:31:07;24.50;64.30
66708;DHT22;53622;0.000;0.000;2023-05-31T07:33:37;24.50;64.30
66708;DHT22;53622;0.000;0.000;2023-05-31T07:36:07;24.50;64.20
66708;DHT22;53622;0.000;0.000;2023-05-31T07:38:36;24.50;64.20
66708;DHT22;53622;0.000;0.000;2023-05-31T07:41:07;24.50;64.20
66708;DHT22;53622;0.000;0.000;2023-05-31T07:43:36;24.50;64.20
66708;DHT22;53622;0.000;0.000;2023-05-31T07:46:07;24.50;64.20
66708;DHT22;53622;0.000;0.000;2023-05-31T07:48:36;24.50;64.10
66708;DHT22;53622;0.000;0.000;2023-05-31T07:51:06;24.50;64.90
66708;DHT22;53622;0.000;0.000;2023-05-31T07:53:35;24.50;64.10
66708;DHT22;53622;0.000;0.000;2023-05-31T07:56:04;24.50;64.10
66708;DHT22;53622;0.000;0.000;2023-05-31T07:58:35;24.50;64.10
66708;DHT22;53622;0.000;0.000;2023-05-31T08:01:05;24.50;64.10
66708;DHT22;53622;0.000;0.000;2023-05-31T08:03:34;24.50;64.10
66708;DHT22;53622;0.000;0.000;2023-05-31T08:06:03;24.50;64.10
66708;DHT22;53622;0.000;0.000;2023-05-31T08:08:33;24.50;64.10
66708;DHT22;53622;0.000;0.000;2023-05-31T08:11:02;24.50;64.10
66708;DHT22;53622;0.000;0.000;2023-05-31T08:13:32;24.50;64.00
66708;DHT22;53622;0.000;0.000;2023-05-31T08:16:03;24.50;64.10
66708;DHT22;53622;0.000;0.000;2023-05-31T08:18:33;24.50;64.00
66708;DHT22;53622;0.000;0.000;2023-05-31T08:21:02;24.50;64.10
66708;DHT22;53622;0.000;0.000;2023-05-31T08:23:32;24.50;64.10
66708;DHT22;53622;0.000;0.000;2023-05-31T08:26:02;24.50;64.10
66708;DHT22;53622;0.000;0.000;2023-05-31T08:28:31;24.50;64.00
66708;DHT22;53622;0.000;0.000;2023-05-31T08:31:02;24.50;64.00
66708;DHT22;53622;0.000;0.000;2023-05-31T08:33:32;24.50;64.00
66708;DHT22;53622;0.000;0.000;2023-05-31T08:36:02;24.50;63.90
66708;DHT22;53622;0.000;0.000;2023-05-31T08:38:32;24.50;63.90
66708;DHT22;53622;0.000;0.000;2023-05-31T08:41:04;24.50;63.80
66708;DHT22;53622;0.000;0.000;2023-05-31T08:43:35;24.60;63.80
66708;DHT22;53622;0.000;0.000;2023-05-31T08:46:07;24.60;63.70
66708;DHT22;53622;0.000;0.000;2023-05-31T08:48:40;24.60;63.60
66708;DHT22;53622;0.000;0.000;2023-05-31T08:51:12;24.60;63.40
66708;DHT22;53622;0.000;0.000;2023-05-31T08:53:43;24.60;63.20
66708;DHT22;53622;0.000;0.000;2023-05-31T08:56:14;24.60;62.70
66708;DHT22;53622;0.000;0.000;2023-05-31T08:58:48;24.60;62.10
66708;DHT22;53622;0.000;0.000;2023-05-31T09:01:20;24.50;61.60
66708;DHT22;53622;0.000;0.000;2023-05-31T09:03:50;24.50;61.40
66708;DHT22;53622;0.000;0.000;2023-05-31T09:06:20;24.50;61.20
66708;DHT22;53622;0.000;0.000;2023-05-31T09:08:49;24.50;60.90
66708;DHT22;53622;0.000;0.000;2023-05-31T09:11:18;24.50;61.00
66708;DHT22;53622;0.000;0.000;2023-05-31T09:13:48;24.50;61.10
66708;DHT22;53622;0.000;0.000;2023-05-31T09:16:19;24.50;60.90
66708;DHT22;53622;0.000;0.000;2023-05-31T09:18:49;24.50;60.80
66708;DHT22;53622;0.000;0.000;2023-05-31T09:21:28;24.50;60.90
66708;DHT22;53622;0.000;0.000;2023-05-31T09:23:58;24.50;61.70
66708;DHT22;53622;0.000;0.000;2023-05-31T09:26:27;24.50;60.90
66708;DHT22;53622;0.000;0.000;2023-05-31T09:29:00;24.50;61.00
66708;DHT22;53622;0.000;0.000;2023-05-31T09:31:31;24.50;60.90
66708;DHT22;53622;0.000;0.000;2023-05-31T09:34:00;24.40;61.10
66708;DHT22;53622;0.000;0.000;2023-05-31T09:36:30;24.40;61.30
66708;DHT22;53622;0.000;0.000;2023-05-31T09:39:03;24.50;61.60
66708;DHT22;53622;0.000;0.000;2023-05-31T09:41:35;24.50;61.60
66708;DHT22;53622;0.000;0.000;2023-05-31T09:44:08;24.50;61.60
66708;DHT22;53622;0.000;0.000;2023-05-31T09:46:38;24.50;61.70
66708;DHT22;53622;0.000;0.000;2023-05-31T09:49:08;24.50;61.60
66708;DHT22;53622;0.000;0.000;2023-05-31T09:51:38;24.50;61.60
66708;DHT22;53622;0.000;0.000;2023-05-31T09:54:13;24.50;61.60
66708;DHT22;53622;0.000;0.000;2023-05-31T09:56:45;24.50;61.60
66708;DHT22;53622;0.000;0.000;2023-05-31T09:59:15;24.50;61.70
66708;DHT22;53622;0.000;0.000;2023-05-31T10:01:47;24.50;61.80
66708;DHT22;53622;0.000;0.000;2023-05-31T10:04:18;24.60;61.90
66708;DHT22;53622;0.000;0.000;2023-05-31T10:06:50;24.60;61.80
66708;DHT22;53622;0.000;0.000;2023-05-31T10:09:19;24.60;61.70
66708;DHT22;53622;0.000;0.000;2023-05-31T10:11:51;24.70;61.60
66708;DHT22;53622;0.000;0.000;2023-05-31T10:14:25;24.60;61.50
66708;DHT22;53622;0.000;0.000;2023-05-31T10:16:59;24.60;61.50
66708;DHT22;53622;0.000;0.000;2023-05-31T10:19:35;24.70;61.60
66708;DHT22;53622;0.000;0.000;2023-05-31T10:22:06;24.60;61.70
66708;DHT22;53622;0.000;0.000;2023-05-31T10:24:40;24.70;61.80
66708;DHT22;53622;0.000;0.000;2023-05-31T10:27:17;24.60;61.80
66708;DHT22;53622;0.000;0.000;2023-05-31T10:29:51;24.60;61.90
66708;DHT22;53622;0.000;0.000;2023-05-31T10:32:24;24.60;61.80
66708;DHT22;53622;0.000;0.000;2023-05-31T10:34:54;24.70;62.80
66708;DHT22;53622;0.000;0.000;2023-05-31T10:37:25;24.70;61.90
66708;DHT22;53622;0.000;0.000;2023-05-31T10:39:59;24.70;61.90
66708;DHT22;53622;0.000;0.000;2023-05-31T10:42:39;24.70;62.00
66708;DHT22;53622;0.000;0.000;2023-05-31T10:45:13;24.70;61.90
66708;DHT22;53622;0.000;0.000;2023-05-31T10:47:51;24.70;61.90
66708;DHT22;53622;0.000;0.000;2023-05-31T10:50:21;24.70;61.90
66708;DHT22;53622;0.000;0.000;2023-05-31T10:52:50;24.80;61.90
66708;DHT22;53622;0.000;0.000;2023-05-31T10:55:21;24.80;61.70
66708;DHT22;53622;0.000;0.000;2023-05-31T10:57:53;24.80;61.60
66708;DHT22;53622;0.000;0.000;2023-05-31T11:00:23;24.80;61.70
66708;DHT22;53622;0.000;0.000;2023-05-31T11:02:57;24.80;61.90
66708;DHT22;53622;0.000;0.000;2023-05-31T11:05:27;24.80;61.90
66708;DHT22;53622;0.000;0.000;2023-05-31T11:07:57;24.70;62.00
66708;DHT22;53622;0.000;0.000;2023-05-31T11:10:28;24.80;62.20
66708;DHT22;53622;0.000;0.000;2023-05-31T11:13:03;24.80;62.20
66708;DHT22;53622;0.000;0.000;2023-05-31T11:15:40;24.80;62.30
66708;DHT22;53622;0.000;0.000;2023-05-31T11:18:15;24.80;62.10
66708;DHT22;53622;0.000;0.000;2023-05-31T11:20:45;24.80;62.00
66708;DHT22;53622;0.000;0.000;2023-05-31T11:23:29;24.80;61.90
66708;DHT22;53622;0.000;0.000;2023-05-31T11:26:15;24.90;61.70
66708;DHT22;53622;0.000;0.000;2023-05-31T11:28:59;24.90;61.70
66708;DHT22;53622;0.000;0.000;2023-05-31T11:31:59;24.90;61.60
66708;DHT22;53622;0.000;0.000;2023-05-31T11:34:33;24.90;61.50
66708;DHT22;53622;0.000;0.000;2023-05-31T11:37:03;24.90;61.70
66708;DHT22;53622;0.000;0.000;2023-05-31T11:39:33;24.90;61.80
66708;DHT22;53622;0.000;0.000;2023-05-31T11:42:03;24.90;61.60
66708;DHT22;53622;0.000;0.000;2023-05-31T11:44:33;24.90;61.60
66708;DHT22;53622;0.000;0.000;2023-05-31T11:47:05;24.80;61.50
66708;DHT22;53622;0.000;0.000;2023-05-31T11:49:37;24.80;61.70
66708;DHT22;53622;0.000;0.000;2023-05-31T11:52:06;24.70;61.70
66708;DHT22;53622;0.000;0.000;2023-05-31T11:54:35;24.70;62.00
66708;DHT22;53622;0.000;0.000;2023-05-31T11:57:07;24.70;62.00
66708;DHT22;53622;0.000;0.000;2023-05-31T11:59:37;24.70;62.00
66708;DHT22;53622;0.000;0.000;2023-05-31T12:02:09;24.70;61.90
66708;DHT22;53622;0.000;0.000;2023-05-31T12:04:41;24.70;61.90
66708;DHT22;53622;0.000;0.000;2023-05-31T12:07:12;24.60;62.00
66708;DHT22;53622;0.000;0.000;2023-05-31T12:09:41;24.70;61.80
66708;DHT22;53622;0.000;0.000;2023-05-31T12:12:11;24.70;61.90
66708;DHT22;53622;0.000;0.000;2023-05-31T12:14:49;24.60;62.10
66708;DHT22;53622;0.000;0.000;2023-05-31T12:17:20;24.70;62.10
66708;DHT22;53622;0.000;0.000;2023-05-31T12:19:51;24.70;62.00
66708;DHT22;53622;0.000;0.000;2023-05-31T12:22:21;24.70;61.90
66708;DHT22;53622;0.000;0.000;2023-05-31T12:24:51;24.70;61.90
66708;DHT22;53622;0.000;0.000;2023-05-31T12:27:22;24.60;61.80
66708;DHT22;53622;0.000;0.000;2023-05-31T12:29:55;24.60;61.80
66708;DHT22;53622;0.000;0.000;2023-05-31T12:32:25;24.60;60.60
66708;DHT22;53622;0.000;0.000;2023-05-31T12:35:08;24.60;59.80
66708;DHT22;53622;0.000;0.000;2023-05-31T12:37:40;24.50;59.50
66708;DHT22;53622;0.000;0.000;2023-05-31T12:40:12;24.50;59.80
66708;DHT22;53622;0.000;0.000;2023-05-31T12:42:42;24.50;59.90
66708;DHT22;53622;0.000;0.000;2023-05-31T12:45:11;24.50;60.00
66708;DHT22;53622;0.000;0.000;2023-05-31T12:47:41;24.50;60.20
66708;DHT22;53622;0.000;0.000;2023-05-31T12:50:12;24.50;60.30
66708;DHT22;53622;0.000;0.000;2023-05-31T12:52:41;24.50;60.30
66708;DHT22;53622;0.000;0.000;2023-05-31T12:55:10;24.50;60.60
66708;DHT22;53622;0.000;0.000;2023-05-31T12:57:39;24.50;60.90
66708;DHT22;53622;0.000;0.000;2023-05-31T13:00:11;24.50;61.00
66708;DHT22;53622;0.000;0.000;2023-05-31T13:02:41;24.50;61.00
66708;DHT22;53622;0.000;0.000;2023-05-31T13:05:12;24.50;61.10
66708;DHT22;53622;0.000;0.000;2023-05-31T13:07:41;24.60;61.10
66708;DHT22;53622;0.000;0.000;2023-05-31T13:10:11;24.60;61.00
66708;DHT22;53622;0.000;0.000;2023-05-31T13:12:42;24.60;61.00
66708;DHT22;53622;0.000;0.000;2023-05-31T13:15:11;24.60;60.90
66708;DHT22;53622;0.000;0.000;2023-05-31T13:17:41;24.70;61.00
66708;DHT22;53622;0.000;0.000;2023-05-31T13:20:12;24.70;61.00
66708;DHT22;53622;0.000;0.000;2023-05-31T13:22:42;24.70;61.10
66708;DHT22;53622;0.000;0.000;2023-05-31T13:25:12;24.70;61.10
66708;DHT22;53622;0.000;0.000;2023-05-31T13:27:41;24.70;61.20
66708;DHT22;53622;0.000;0.000;2023-05-31T13:30:12;24.70;61.40
66708;DHT22;53622;0.000;0.000;2023-05-31T13:32:41;24.70;61.60
66708;DHT22;53622;0.000;0.000;2023-05-31T13:35:12;24.70;61.80
66708;DHT22;53622;0.000;0.000;2023-05-31T13:37:41;24.80;61.90
66708;DHT22;53622;0.000;0.000;2023-05-31T13:40:11;24.80;62.00
66708;DHT22;53622;0.000;0.000;2023-05-31T13:42:41;24.80;62.10
66708;DHT22;53622;0.000;0.000;2023-05-31T13:45:10;24.80;62.10
66708;DHT22;53622;0.000;0.000;2023-05-31T13:47:40;24.80;62.00
66708;DHT22;53622;0.000;0.000;2023-05-31T13:50:10;24.80;62.00
66708;DHT22;53622;0.000;0.000;2023-05-31T13:52:40;24.80;62.00
66708;DHT22;53622;0.000;0.000;2023-05-31T13:55:10;24.80;61.90
66708;DHT22;53622;0.000;0.000;2023-05-31T13:57:39;24.90;62.00
66708;DHT22;53622;0.000;0.000;2023-05-31T14:00:09;24.90;62.00
66708;DHT22;53622;0.000;0.000;2023-05-31T14:02:38;24.90;62.10
66708;DHT22;53622;0.000;0.000;2023-05-31T14:05:09;24.90;62.10
66708;DHT22;53622;0.000;0.000;2023-05-31T14:07:40;24.80;62.00
66708;DHT22;53622;0.000;0.000;2023-05-31T14:10:10;24.90;62.00
66708;DHT22;53622;0.000;0.000;2023-05-31T14:12:39;24.90;62.00
66708;DHT22;53622;0.000;0.000;2023-05-31T14:15:09;24.90;62.00
66708;DHT22;53622;0.000;0.000;2023-05-31T14:17:38;24.90;62.70
66708;DHT22;53622;0.000;0.000;2023-05-31T14:20:08;24.90;61.90
66708;DHT22;53622;0.000;0.000;2023-05-31T14:22:38;24.90;61.80
66708;DHT22;53622;0.000;0.000;2023-05-31T14:25:09;24.90;61.70
66708;DHT22;53622;0.000;0.000;2023-05-31T14:27:39;25.00;61.70
66708;DHT22;53622;0.000;0.000;2023-05-31T14:30:08;24.90;61.60
66708;DHT22;53622;0.000;0.000;2023-05-31T14:32:38;24.90;61.60
66708;DHT22;53622;0.000;0.000;2023-05-31T14:35:08;24.90;61.60
66708;DHT22;53622;0.000;0.000;2023-05-31T14:37:40;24.90;61.60
66708;DHT22;53622;0.000;0.000;2023-05-31T14:40:29;24.90;61.70
66708;DHT22;53622;0.000;0.000;2023-05-31T14:42:58;24.90;61.60
66708;DHT22;53622;0.000;0.000;2023-05-31T14:45:28;24.90;62.40
66708;DHT22;53622;0.000;0.000;2023-05-31T14:47:57;24.90;61.60
66708;DHT22;53622;0.000;0.000;2023-05-31T14:50:27;25.00;61.70
66708;DHT22;53622;0.000;0.000;2023-05-31T14:52:56;25.00;61.70
66708;DHT22;53622;0.000;0.000;2023-05-31T14:55:26;25.00;61.60
66708;DHT22;53622;0.000;0.000;2023-05-31T14:57:56;25.00;61.60
66708;DHT22;53622;0.000;0.000;2023-05-31T15:00:26;25.00;61.70
66708;DHT22;53622;0.000;0.000;2023-05-31T15:02:55;25.00;61.70
66708;DHT22;53622;0.000;0.000;2023-05-31T15:05:24;24.90;61.60
66708;DHT22;53622;0.000;0.000;2023-05-31T15:07:54;25.00;61.60
66708;DHT22;53622;0.000;0.000;2023-05-31T15:10:23;25.00;61.50
66708;DHT22;53622;0.000;0.000;2023-05-31T15:12:55;25.00;61.50
66708;DHT22;53622;0.000;0.000;2023-05-31T15:15:25;25.00;61.60
66708;DHT22;53622;0.000;0.000;2023-05-31T15:17:54;25.00;61.50
66708;DHT22;53622;0.000;0.000;2023-05-31T15:20:24;25.00;61.50
66708;DHT22;53622;0.000;0.000;2023-05-31T15:22:53;24.90;61.50
66708;DHT22;53622;0.000;0.000;2023-05-31T15:25:24;24.90;61.50
66708;DHT22;53622;0.000;0.000;2023-05-31T15:27:57;24.90;61.60
66708;DHT22;53622;0.000;0.000;2023-05-31T15:30:27;24.90;61.60
66708;DHT22;53622;0.000;0.000;2023-05-31T15:32:56;24.90;61.60
66708;DHT22;53622;0.000;0.000;2023-05-31T15:35:26;25.00;61.70
66708;DHT22;53622;0.000;0.000;2023-05-31T15:37:55;25.00;61.50
66708;DHT22;53622;0.000;0.000;2023-05-31T15:40:25;25.00;61.50
66708;DHT22;53622;0.000;0.000;2023-05-31T15:42:54;25.00;61.40
66708;DHT22;53622;0.000;0.000;2023-05-31T15:45:25;25.00;61.40
66708;DHT22;53622;0.000;0.000;2023-05-31T15:47:54;25.00;61.40
66708;DHT22;53622;0.000;0.000;2023-05-31T15:50:24;25.00;61.30
66708;DHT22;53622;0.000;0.000;2023-05-31T15:52:53;24.90;61.30
66708;DHT22;53622;0.000;0.000;2023-05-31T15:55:22;24.90;61.60
66708;DHT22;53622;0.000;0.000;2023-05-31T15:57:52;25.00;61.80
66708;DHT22;53622;0.000;0.000;2023-05-31T16:00:21;25.00;61.70
66708;DHT22;53622;0.000;0.000;2023-05-31T16:02:52;25.00;61.60
66708;DHT22;53622;0.000;0.000;2023-05-31T16:05:22;25.00;61.50
66708;DHT22;53622;0.000;0.000;2023-05-31T16:07:51;25.00;61.50
66708;DHT22;53622;0.000;0.000;2023-05-31T16:10:20;25.00;61.50